createdAt,value
2023-11-15T00:00:15.771Z,7.22
2023-11-15T00:02:42.579Z,8.43
2023-11-15T00:05:09.573Z,8.10
2023-11-15T00:07:36.266Z,8.40
2023-11-15T00:10:05.005Z,8.07
2023-11-15T00:12:33.345Z,9.60
2023-11-15T00:15:00.248Z,10.05
2023-11-15T00:17:27.015Z,10.05
2023-11-15T00:19:54.951Z,8.13
2023-11-15T00:22:23.983Z,7.50
2023-11-15T00:24:51.228Z,6.38
2023-11-15T00:27:18.061Z,8.45
2023-11-15T00:29:44.824Z,4.40
2023-11-15T00:32:11.664Z,6.20
2023-11-15T00:34:38.391Z,6.35
2023-11-15T00:37:05.717Z,6.03
2023-11-15T00:39:32.568Z,5.93
2023-11-15T00:41:59.215Z,3.67
2023-11-15T00:44:26.140Z,5.28
2023-11-15T00:46:52.854Z,3.67
2023-11-15T00:49:19.539Z,13.07
2023-11-15T00:51:46.162Z,4.68
2023-11-15T00:54:13.084Z,6.20
2023-11-15T00:56:39.722Z,5.70
2023-11-15T00:59:06.710Z,7.07
2023-11-15T01:01:33.514Z,4.15
2023-11-15T01:04:00.382Z,4.07
2023-11-15T01:06:27.182Z,4.93
2023-11-15T01:08:58.104Z,3.55
2023-11-15T01:11:27.457Z,4.15
2023-11-15T01:13:56.912Z,4.28
2023-11-15T01:16:24.856Z,4.75
2023-11-15T01:18:54.214Z,4.95
2023-11-15T01:21:21.176Z,4.30
2023-11-15T01:23:47.895Z,8.10
2023-11-15T01:26:15.141Z,7.30
2023-11-15T01:28:42.052Z,4.35
2023-11-15T01:31:08.779Z,3.60
2023-11-15T01:33:35.601Z,5.03
2023-11-15T01:36:02.371Z,4.20
2023-11-15T01:38:30.589Z,6.80
2023-11-15T01:40:57.463Z,5.60
2023-11-15T01:43:24.989Z,4.05
2023-11-15T01:45:52.645Z,4.72
2023-11-15T01:48:19.784Z,5.25
2023-11-15T01:50:48.386Z,4.38
2023-11-15T01:53:15.904Z,4.65
2023-11-15T01:55:44.374Z,3.70
2023-11-15T01:58:11.247Z,4.13
2023-11-15T02:00:38.025Z,4.78
2023-11-15T02:03:04.948Z,5.38
2023-11-15T02:05:31.825Z,5.30
2023-11-15T02:07:58.690Z,5.80
2023-11-15T02:10:25.830Z,4.65
2023-11-15T02:12:52.588Z,5.53
2023-11-15T02:15:22.246Z,6.60
2023-11-15T02:17:49.930Z,4.15
2023-11-15T02:20:17.760Z,4.90
2023-11-15T02:22:51.787Z,3.95
2023-11-15T02:25:19.319Z,6.05
2023-11-15T02:27:46.106Z,6.25
2023-11-15T02:30:13.225Z,3.25
2023-11-15T02:32:43.013Z,5.10
2023-11-15T02:35:10.264Z,3.95
2023-11-15T02:37:37.179Z,4.13
2023-11-15T02:40:10.550Z,3.88
2023-11-15T02:42:37.531Z,5.97
2023-11-15T02:45:04.694Z,5.57
2023-11-15T02:47:31.510Z,4.78
2023-11-15T02:49:58.219Z,3.88
2023-11-15T02:52:24.925Z,5.78
2023-11-15T02:54:52.740Z,4.88
2023-11-15T02:57:19.506Z,3.58
2023-11-15T02:59:46.294Z,6.78
2023-11-15T03:02:15.437Z,3.63
2023-11-15T03:04:42.128Z,4.70
2023-11-15T03:07:08.781Z,3.22
2023-11-15T03:09:35.458Z,3.75
2023-11-15T03:12:02.421Z,5.10
2023-11-15T03:14:29.186Z,5.70
2023-11-15T03:16:55.988Z,6.10
2023-11-15T03:19:23.142Z,4.13
2023-11-15T03:21:49.820Z,5.57
2023-11-15T03:24:16.494Z,5.40
2023-11-15T03:26:43.201Z,5.00
2023-11-15T03:29:09.869Z,5.15
2023-11-15T03:31:36.601Z,6.38
2023-11-15T03:34:05.592Z,5.90
2023-11-15T03:36:33.814Z,4.65
2023-11-15T03:39:00.843Z,6.47
2023-11-15T03:41:27.575Z,6.00
2023-11-15T03:43:54.227Z,5.95
2023-11-15T03:46:20.913Z,3.97
2023-11-15T03:48:47.641Z,7.38
2023-11-15T03:51:14.332Z,4.30
2023-11-15T03:53:40.995Z,5.13
2023-11-15T03:56:09.720Z,5.85
2023-11-15T03:58:36.484Z,5.57
2023-11-15T04:01:05.446Z,5.53
2023-11-15T04:03:32.351Z,5.35
2023-11-15T04:06:01.035Z,9.10
2023-11-15T04:08:28.962Z,5.30
2023-11-15T04:10:55.736Z,4.88
2023-11-15T04:13:22.678Z,5.50
2023-11-15T04:15:49.411Z,6.30
2023-11-15T04:18:16.233Z,7.32
2023-11-15T04:20:42.974Z,9.40
2023-11-15T04:23:09.841Z,5.00
2023-11-15T04:25:36.522Z,7.22
2023-11-15T04:28:05.741Z,6.85
2023-11-15T04:30:33.024Z,6.28
2023-11-15T04:33:00.495Z,6.88
2023-11-15T04:35:27.336Z,6.47
2023-11-15T04:37:54.600Z,6.60
2023-11-15T04:40:22.081Z,8.73
2023-11-15T04:42:48.736Z,6.35
2023-11-15T04:45:15.440Z,6.82
2023-11-15T04:47:42.252Z,6.22
2023-11-15T04:50:09.592Z,7.47
2023-11-15T04:52:36.320Z,5.82
2023-11-15T04:55:03.595Z,7.30
2023-11-15T04:57:30.532Z,8.93
2023-11-15T04:59:57.440Z,6.20
2023-11-15T05:02:24.423Z,7.82
2023-11-15T05:04:53.394Z,8.43
2023-11-15T05:07:21.444Z,7.35
2023-11-15T05:09:48.168Z,6.30
2023-11-15T05:12:17.085Z,6.18
2023-11-15T05:14:44.405Z,7.50
2023-11-15T05:17:13.274Z,5.80
2023-11-15T05:19:40.371Z,5.13
2023-11-15T05:22:07.096Z,4.68
2023-11-15T05:24:34.390Z,5.75
2023-11-15T05:27:01.179Z,6.40
2023-11-15T05:29:27.884Z,7.57
2023-11-15T05:31:54.579Z,9.27
2023-11-15T05:34:21.225Z,6.28
2023-11-15T05:36:47.917Z,4.90
2023-11-15T05:39:14.694Z,6.78
2023-11-15T05:41:41.501Z,6.75
2023-11-15T05:44:08.210Z,6.00
2023-11-15T05:46:35.058Z,8.32
2023-11-15T05:49:01.887Z,6.65
2023-11-15T05:51:28.726Z,9.88
2023-11-15T05:53:55.385Z,7.90
2023-11-15T05:56:23.143Z,6.30
2023-11-15T05:58:49.844Z,10.80
2023-11-15T06:01:16.561Z,8.93
2023-11-15T06:03:43.383Z,7.45
2023-11-15T06:06:10.220Z,7.20
2023-11-15T06:08:37.987Z,6.38
2023-11-15T06:11:05.144Z,9.13
2023-11-15T06:13:32.134Z,7.13
2023-11-15T06:15:58.960Z,8.00
2023-11-15T06:18:25.729Z,9.90
2023-11-15T06:20:52.542Z,7.00
2023-11-15T06:23:19.212Z,8.85
2023-11-15T06:25:45.912Z,6.78
2023-11-15T06:28:12.650Z,8.73
2023-11-15T06:30:39.520Z,6.50
2023-11-15T06:33:06.351Z,9.18
2023-11-15T06:35:33.127Z,6.05
2023-11-15T06:38:02.446Z,5.57
2023-11-15T06:40:29.192Z,6.60
2023-11-15T06:42:55.865Z,7.40
2023-11-15T06:45:23.251Z,8.38
2023-11-15T06:47:54.990Z,5.90
2023-11-15T06:50:21.749Z,8.07
2023-11-15T06:52:48.374Z,4.65
2023-11-15T06:55:16.455Z,5.75
2023-11-15T06:57:44.870Z,6.00
2023-11-15T07:00:13.828Z,4.65
2023-11-15T07:02:42.298Z,5.47
2023-11-15T07:05:11.388Z,7.65
2023-11-15T07:07:38.649Z,7.75
2023-11-15T07:10:06.754Z,6.32
2023-11-15T07:12:37.333Z,8.77
2023-11-15T07:15:05.495Z,5.47
2023-11-15T07:17:33.182Z,6.05
2023-11-15T07:20:00.327Z,5.63
2023-11-15T07:22:27.104Z,6.10
2023-11-15T07:24:54.592Z,8.82
2023-11-15T07:27:21.215Z,5.82
2023-11-15T07:29:48.197Z,7.32
2023-11-15T07:32:15.022Z,5.55
2023-11-15T07:34:41.751Z,4.50
2023-11-15T07:37:09.241Z,6.32
2023-11-15T07:39:35.946Z,7.97
2023-11-15T07:42:03.169Z,5.72
2023-11-15T07:44:31.543Z,5.72
2023-11-15T07:47:00.010Z,6.50
2023-11-15T07:49:28.023Z,5.13
2023-11-15T07:51:54.759Z,5.57
2023-11-15T07:54:22.404Z,5.35
2023-11-15T07:56:49.190Z,9.05
2023-11-15T07:59:16.273Z,5.90
2023-11-15T08:01:47.089Z,5.13
2023-11-15T08:04:16.209Z,8.18
2023-11-15T08:06:43.639Z,6.13
2023-11-15T08:09:24.932Z,6.95
2023-11-15T08:11:56.307Z,6.07
2023-11-15T08:14:23.357Z,8.38
2023-11-15T08:16:50.724Z,5.97
2023-11-15T08:19:19.359Z,6.68
2023-11-15T08:21:46.060Z,7.55
2023-11-15T08:24:18.052Z,8.80
2023-11-15T08:26:45.477Z,6.63
2023-11-15T08:29:13.103Z,6.32
2023-11-15T08:31:39.834Z,7.68
2023-11-15T08:34:06.743Z,5.85
2023-11-15T08:36:33.713Z,5.65
2023-11-15T08:39:00.537Z,6.22
2023-11-15T08:41:27.329Z,6.05
2023-11-15T08:43:54.109Z,6.53
2023-11-15T08:46:21.325Z,5.50
2023-11-15T08:48:52.710Z,4.13
2023-11-15T08:51:20.437Z,7.93
2023-11-15T08:53:48.602Z,6.47
2023-11-15T08:56:15.483Z,9.52
2023-11-15T08:58:42.432Z,6.63
2023-11-15T09:01:10.482Z,8.05
2023-11-15T09:03:40.236Z,12.10
2023-11-15T09:06:07.573Z,31.77
2023-11-15T09:08:35.118Z,23.73
2023-11-15T09:11:01.777Z,12.15
2023-11-15T09:13:29.450Z,8.95
2023-11-15T09:15:56.182Z,7.97
2023-11-15T09:18:23.152Z,7.95
2023-11-15T09:20:50.933Z,8.90
2023-11-15T09:23:25.179Z,7.13
2023-11-15T09:26:00.665Z,8.57
2023-11-15T09:28:27.526Z,7.50
2023-11-15T09:30:54.254Z,8.63
2023-11-15T09:33:21.851Z,60.05
2023-11-15T09:35:55.012Z,28.05
2023-11-15T09:38:27.292Z,36.67
2023-11-15T09:40:54.049Z,21.33
2023-11-15T09:43:21.125Z,18.20
2023-11-15T09:45:49.324Z,9.70
2023-11-15T09:48:16.259Z,8.23
2023-11-15T09:50:49.833Z,9.10
2023-11-15T09:53:18.525Z,6.28
2023-11-15T09:55:45.193Z,6.85
2023-11-15T09:58:14.330Z,6.53
2023-11-15T10:00:41.199Z,8.60
2023-11-15T10:03:08.059Z,6.22
2023-11-15T10:05:34.907Z,6.97
2023-11-15T10:08:13.855Z,5.60
2023-11-15T10:10:44.338Z,8.65
2023-11-15T10:13:16.358Z,20.13
2023-11-15T10:15:47.518Z,6.68
2023-11-15T10:18:16.884Z,5.43
2023-11-15T10:20:44.604Z,5.82
2023-11-15T10:23:13.225Z,5.38
2023-11-15T10:25:52.390Z,5.70
2023-11-15T10:28:22.429Z,4.03
2023-11-15T10:31:06.526Z,6.15
2023-11-15T10:33:35.839Z,4.00
2023-11-15T10:36:21.019Z,3.85
2023-11-15T10:38:56.420Z,4.65
2023-11-15T10:41:25.943Z,4.55
2023-11-15T10:43:56.076Z,4.25
2023-11-15T10:46:31.221Z,6.32
2023-11-15T10:48:59.933Z,3.70
2023-11-15T10:51:42.557Z,5.45
2023-11-15T10:54:15.148Z,4.85
2023-11-15T10:56:42.854Z,5.97
2023-11-15T10:59:14.802Z,6.35
2023-11-15T11:01:42.491Z,5.93
2023-11-15T11:04:12.759Z,4.10
2023-11-15T11:06:59.027Z,6.10
2023-11-15T11:09:53.988Z,5.88
2023-11-15T11:12:24.113Z,6.32
2023-11-15T11:15:18.545Z,4.55
2023-11-15T11:17:46.888Z,8.57
2023-11-15T11:20:28.381Z,4.10
2023-11-15T11:23:23.608Z,3.92
2023-11-15T11:25:53.328Z,6.50
2023-11-15T11:28:22.557Z,4.97
2023-11-15T11:31:17.033Z,3.80
2023-11-15T11:34:09.393Z,3.35
2023-11-15T11:36:54.616Z,10.73
2023-11-15T11:39:23.813Z,4.88
2023-11-15T11:41:50.972Z,11.73
2023-11-15T11:44:19.379Z,6.80
2023-11-15T11:47:02.638Z,9.82
2023-11-15T11:49:45.644Z,4.65
2023-11-15T11:52:15.000Z,7.93
2023-11-15T11:54:41.730Z,5.32
2023-11-15T11:57:08.602Z,5.22
2023-11-15T11:59:35.937Z,2.80
2023-11-15T12:02:02.668Z,4.15
2023-11-15T12:04:29.431Z,4.82
2023-11-15T12:06:56.230Z,3.42
2023-11-15T12:09:24.460Z,5.07
2023-11-15T12:11:51.202Z,5.95
2023-11-15T12:14:17.859Z,4.93
2023-11-15T12:16:44.678Z,5.93
2023-11-15T12:19:13.748Z,3.55
2023-11-15T12:21:44.737Z,5.43
2023-11-15T12:24:12.218Z,4.30
2023-11-15T12:26:47.318Z,3.28
2023-11-15T12:29:27.542Z,3.17
2023-11-15T12:31:57.561Z,4.00
2023-11-15T12:34:25.772Z,5.05
2023-11-15T12:36:53.449Z,3.55
2023-11-15T12:39:22.851Z,3.97
2023-11-15T12:41:52.112Z,4.25
2023-11-15T12:44:18.900Z,3.88
2023-11-15T12:46:49.959Z,5.72
2023-11-15T12:49:23.408Z,6.10
2023-11-15T12:51:51.067Z,5.03
2023-11-15T12:54:18.028Z,6.15
2023-11-15T12:56:45.750Z,5.53
2023-11-15T12:59:15.779Z,6.13
2023-11-15T13:01:45.161Z,5.00
2023-11-15T13:04:13.701Z,4.72
2023-11-15T13:06:40.747Z,7.28
2023-11-15T13:09:13.261Z,6.68
2023-11-15T13:11:42.498Z,5.38
2023-11-15T13:14:09.512Z,6.90
2023-11-15T13:16:36.758Z,7.93
2023-11-15T13:19:04.988Z,10.68
2023-11-15T13:21:32.308Z,6.70
2023-11-15T13:23:58.994Z,11.23
2023-11-15T13:26:26.160Z,7.65
2023-11-15T13:28:54.410Z,10.80
2023-11-15T13:31:24.948Z,9.88
2023-11-15T13:33:53.696Z,8.15
2023-11-15T13:36:20.969Z,8.80
2023-11-15T13:38:48.508Z,7.53
2023-11-15T13:41:18.653Z,8.98
2023-11-15T13:43:48.917Z,7.60
2023-11-15T13:46:15.864Z,7.72
2023-11-15T13:48:43.156Z,7.20
2023-11-15T13:51:12.354Z,8.77
2023-11-15T13:53:40.132Z,8.77
2023-11-15T13:56:08.508Z,11.18
2023-11-15T13:58:37.113Z,8.23
2023-11-15T14:01:06.076Z,12.93
2023-11-15T14:03:34.045Z,13.43
2023-11-15T14:06:05.311Z,11.15
2023-11-15T14:08:47.121Z,11.27
2023-11-15T14:11:23.280Z,12.50
2023-11-15T14:13:50.062Z,8.93
2023-11-15T14:16:16.977Z,5.95
2023-11-15T14:18:48.224Z,12.18
2023-11-15T14:21:15.244Z,11.20
2023-11-15T14:23:42.030Z,10.55
2023-11-15T14:26:09.744Z,6.45
2023-11-15T14:28:36.731Z,7.32
2023-11-15T14:31:05.003Z,6.40
2023-11-15T14:33:32.729Z,3.95
2023-11-15T14:35:59.808Z,6.18
2023-11-15T14:38:26.543Z,4.05
2023-11-15T14:40:53.565Z,4.13
2023-11-15T14:43:20.583Z,3.58
2023-11-15T14:45:48.035Z,4.68
2023-11-15T14:48:15.011Z,4.07
2023-11-15T14:50:42.684Z,4.22
2023-11-15T14:53:19.351Z,4.65
2023-11-15T14:55:47.493Z,10.05
2023-11-15T14:58:19.445Z,3.90
2023-11-15T15:00:46.232Z,12.20
2023-11-15T15:03:13.790Z,10.38
2023-11-15T15:05:41.326Z,5.43
2023-11-15T15:08:15.201Z,5.78
2023-11-15T15:10:43.014Z,3.90
2023-11-15T15:13:10.761Z,5.88
2023-11-15T15:15:38.668Z,5.63
2023-11-15T15:18:06.678Z,4.40
2023-11-15T15:20:36.148Z,4.43
2023-11-15T15:23:03.860Z,5.40
2023-11-15T15:25:35.957Z,4.93
2023-11-15T15:28:03.585Z,4.00
2023-11-15T15:30:33.691Z,5.68
2023-11-15T15:33:02.162Z,4.68
2023-11-15T15:35:31.984Z,6.65
2023-11-15T15:37:59.028Z,4.03
2023-11-15T15:40:31.753Z,3.65
2023-11-15T15:42:58.779Z,2.53
2023-11-15T15:45:25.518Z,3.38
2023-11-15T15:47:52.440Z,4.68
2023-11-15T15:50:19.293Z,3.83
2023-11-15T15:52:46.022Z,4.90
2023-11-15T15:55:13.354Z,3.28
2023-11-15T15:57:40.191Z,4.25
2023-11-15T16:00:07.950Z,2.30
2023-11-15T16:02:37.443Z,3.38
2023-11-15T16:05:05.030Z,4.85
2023-11-15T16:07:32.378Z,4.80
2023-11-15T16:10:02.004Z,4.07
2023-11-15T16:12:29.795Z,3.90
2023-11-15T16:14:58.183Z,4.60
2023-11-15T16:17:26.378Z,5.53
2023-11-15T16:19:57.310Z,4.88
2023-11-15T16:22:25.413Z,9.48
2023-11-15T16:24:52.089Z,16.75
2023-11-15T16:27:22.496Z,11.55
2023-11-15T16:29:52.541Z,10.63
2023-11-15T16:32:19.620Z,10.00
2023-11-15T16:34:48.053Z,10.15
2023-11-15T16:37:15.007Z,6.78
2023-11-15T16:39:41.730Z,6.38
2023-11-15T16:42:09.276Z,6.80
2023-11-15T16:44:37.302Z,7.25
2023-11-15T16:47:05.130Z,8.77
2023-11-15T16:49:31.772Z,7.65
2023-11-15T16:52:00.583Z,12.13
2023-11-15T16:54:27.866Z,10.02
2023-11-15T16:56:54.814Z,7.28
2023-11-15T16:59:21.544Z,6.88
2023-11-15T17:01:48.385Z,7.35
2023-11-15T17:04:15.246Z,11.15
2023-11-15T17:06:42.557Z,7.90
2023-11-15T17:09:09.390Z,9.52
2023-11-15T17:11:36.259Z,31.35
2023-11-15T17:14:03.110Z,24.88
2023-11-15T17:16:29.779Z,34.30
2023-11-15T17:18:56.651Z,49.85
2023-11-15T17:21:26.194Z,24.73
2023-11-15T17:23:53.674Z,31.73
2023-11-15T17:26:21.104Z,23.92
2023-11-15T17:28:48.214Z,24.50
2023-11-15T17:31:14.998Z,12.00
2023-11-15T17:33:42.308Z,9.70
2023-11-15T17:36:10.095Z,7.78
2023-11-15T17:38:36.965Z,9.23
2023-11-15T17:41:04.950Z,10.20
2023-11-15T17:43:31.696Z,13.05
2023-11-15T17:45:58.495Z,7.68
2023-11-15T17:48:25.259Z,10.52
2023-11-15T17:50:51.968Z,10.25
2023-11-15T17:53:18.970Z,8.65
2023-11-15T17:55:45.788Z,10.93
2023-11-15T17:58:12.486Z,6.97
2023-11-15T18:00:39.636Z,11.70
2023-11-15T18:03:06.922Z,10.15
2023-11-15T18:05:33.846Z,12.45
2023-11-15T18:08:00.670Z,9.85
2023-11-15T18:10:29.910Z,13.18
2023-11-15T18:12:58.180Z,6.80
2023-11-15T18:15:25.116Z,10.65
2023-11-15T18:17:52.426Z,9.13
2023-11-15T18:20:22.378Z,7.43
2023-11-15T18:22:52.212Z,7.28
2023-11-15T18:25:20.181Z,8.27
2023-11-15T18:27:49.090Z,8.10
2023-11-15T18:30:17.740Z,7.22
2023-11-15T18:32:48.533Z,10.85
2023-11-15T18:35:15.381Z,7.05
2023-11-15T18:37:43.185Z,10.45
2023-11-15T18:40:13.581Z,9.68
2023-11-15T18:42:40.847Z,12.07
2023-11-15T18:45:12.130Z,14.07
2023-11-15T18:47:40.442Z,9.00
2023-11-15T18:50:12.119Z,11.40
2023-11-15T18:52:44.486Z,12.77
2023-11-15T18:55:13.792Z,9.70
2023-11-15T18:57:42.375Z,7.35
2023-11-15T19:00:14.841Z,10.40
2023-11-15T19:02:45.648Z,8.23
2023-11-15T19:05:17.395Z,18.40
2023-11-15T19:07:44.342Z,27.35
2023-11-15T19:10:18.035Z,12.02
2023-11-15T19:12:49.840Z,13.60
2023-11-15T19:15:17.113Z,8.45
2023-11-15T19:17:50.421Z,13.90
2023-11-15T19:20:19.390Z,7.88
2023-11-15T19:22:51.273Z,11.85
2023-11-15T19:25:18.026Z,10.45
2023-11-15T19:27:45.399Z,12.20
2023-11-15T19:30:13.448Z,9.88
2023-11-15T19:32:40.260Z,10.18
2023-11-15T19:35:09.862Z,7.88
2023-11-15T19:37:37.505Z,6.13
2023-11-15T19:40:10.174Z,8.25
2023-11-15T19:42:39.326Z,7.68
2023-11-15T19:45:08.440Z,7.70
2023-11-15T19:47:35.372Z,9.65
2023-11-15T19:50:02.118Z,9.05
2023-11-15T19:52:30.602Z,16.05
2023-11-15T19:54:58.266Z,7.32
2023-11-15T19:57:25.317Z,5.97
2023-11-15T19:59:52.542Z,8.32
2023-11-15T20:02:19.316Z,7.13
2023-11-15T20:04:46.108Z,5.85
2023-11-15T20:07:14.913Z,5.97
2023-11-15T20:09:41.618Z,11.45
2023-11-15T20:12:08.526Z,6.72
2023-11-15T20:14:35.213Z,7.20
2023-11-15T20:17:02.047Z,9.00
2023-11-15T20:19:29.624Z,8.52
2023-11-15T20:21:56.278Z,9.82
2023-11-15T20:24:23.078Z,6.25
2023-11-15T20:26:50.332Z,6.72
2023-11-15T20:29:20.094Z,9.95
2023-11-15T20:31:46.997Z,6.25
2023-11-15T20:34:14.148Z,7.32
2023-11-15T20:36:41.325Z,6.95
2023-11-15T20:39:21.638Z,5.40
2023-11-15T20:41:51.180Z,7.78
2023-11-15T20:44:18.271Z,7.10
2023-11-15T20:46:46.234Z,6.97
2023-11-15T20:49:13.754Z,5.30
2023-11-15T20:51:53.723Z,7.22
2023-11-15T20:54:24.939Z,14.23
2023-11-15T20:56:51.978Z,6.85
2023-11-15T20:59:18.616Z,6.43
2023-11-15T21:01:45.293Z,9.48
2023-11-15T21:04:13.861Z,8.50
2023-11-15T21:06:40.929Z,5.43
2023-11-15T21:09:10.667Z,6.15
2023-11-15T21:11:38.978Z,9.73
2023-11-15T21:14:06.900Z,8.35
2023-11-15T21:16:33.639Z,5.38
2023-11-15T21:19:00.437Z,8.20
2023-11-15T21:21:28.594Z,9.38
2023-11-15T21:23:56.871Z,10.02
2023-11-15T21:26:24.113Z,7.72
2023-11-15T21:28:54.502Z,4.65
2023-11-15T21:31:24.942Z,6.43
2023-11-15T21:33:51.690Z,10.32
2023-11-15T21:36:18.458Z,5.50
2023-11-15T21:38:45.587Z,9.05
2023-11-15T21:41:12.364Z,7.15
2023-11-15T21:43:40.233Z,7.53
2023-11-15T21:46:07.054Z,7.57
2023-11-15T21:48:35.378Z,9.07
2023-11-15T21:51:02.254Z,5.75
2023-11-15T21:53:32.427Z,7.03
2023-11-15T21:56:01.788Z,11.55
2023-11-15T21:58:28.552Z,9.00
2023-11-15T22:00:55.408Z,8.32
2023-11-15T22:03:24.927Z,8.32
2023-11-15T22:05:51.831Z,7.97
2023-11-15T22:08:18.994Z,9.43
2023-11-15T22:10:45.749Z,11.38
2023-11-15T22:13:12.733Z,7.97
2023-11-15T22:15:39.459Z,7.35
2023-11-15T22:18:07.236Z,9.05
2023-11-15T22:20:34.215Z,8.30
2023-11-15T22:23:00.985Z,10.63
2023-11-15T22:25:27.654Z,8.05
2023-11-15T22:27:54.313Z,26.60
2023-11-15T22:30:22.071Z,25.90
2023-11-15T22:32:48.842Z,13.13
2023-11-15T22:35:15.731Z,17.83
2023-11-15T22:37:43.033Z,9.57
2023-11-15T22:40:10.531Z,13.43
2023-11-15T22:42:38.169Z,13.93
2023-11-15T22:45:05.861Z,13.77
2023-11-15T22:47:32.551Z,11.80
2023-11-15T22:49:59.291Z,13.90
2023-11-15T22:52:25.959Z,10.90
2023-11-15T22:54:52.743Z,11.00
2023-11-15T22:57:19.491Z,9.50
2023-11-15T22:59:47.701Z,9.55
2023-11-15T23:02:16.274Z,11.25
2023-11-15T23:04:44.933Z,8.90
2023-11-15T23:07:11.876Z,7.90
2023-11-15T23:09:38.622Z,8.93
2023-11-15T23:12:05.857Z,8.13
2023-11-15T23:14:32.587Z,10.60
2023-11-15T23:16:59.276Z,10.25
2023-11-15T23:19:25.924Z,11.35
2023-11-15T23:21:59.413Z,11.25
2023-11-15T23:24:30.478Z,17.38
2023-11-15T23:27:00.951Z,10.45
2023-11-15T23:29:29.146Z,13.70
2023-11-15T23:31:57.088Z,11.65
2023-11-15T23:34:24.142Z,11.50
2023-11-15T23:36:51.537Z,10.75
2023-11-15T23:39:19.021Z,7.75
2023-11-15T23:41:45.788Z,9.52
2023-11-15T23:44:12.485Z,11.52
2023-11-15T23:46:39.291Z,8.75
2023-11-15T23:49:07.516Z,11.40
2023-11-15T23:51:34.316Z,12.48
2023-11-15T23:54:01.036Z,10.60
2023-11-15T23:56:27.730Z,8.68
2023-11-15T23:58:54.526Z,9.95
